Alva, FL (33920)

6:34 PM EST on February 06, 2016 (GMT -0500)
Gary & Lori River Oaks Alva | | Change Station
CLOSE
Current Station
Personal Weather Station
Location: Alva, FL
Elevation: 11 ft
Nearby Weather Stations

Elev 11 ft 26.71 °N, 81.62 °W | Updated 3 minutes ago

Rain
Rain
56.5 °F
Feels Like 56.5 °F
N
0.0
Wind Variable Wind from WNW
Gusts 1.0 mph

Today
High -- | Low -- °F
--% Chance of Precip.
Yesterday
High -- | Low -- °F
Precip. -- in
Pressure 30.08 in
Visibility 1.5 miles
Clouds Mostly Cloudy 700 ft
Mostly Cloudy 3300 ft
Overcast 4300 ft
Dew Point 55 °F
Humidity 96%
Rainfall 0.33 in
Snow Depth Not available.
7:09 AM 6:12 PM
Waning Crescent, 4% visible
SPECI KRSW 062308Z 33008G16KT 1 1/2SM -RA BR BKN007 BKN033 OVC043 14/13 A3008 RMK AO2 P0002 T01440128
Pressure 30.08 in
Visibility 1.5 miles
Clouds Mostly Cloudy 700 ft
Mostly Cloudy 3300 ft
Overcast 4300 ft
Dew Point 55 °F
Humidity 96%
Rainfall 0.33 in
Snow Depth Not available.
7:09 AM 6:12 PM
Waning Crescent, 4% visible
SPECI KRSW 062308Z 33008G16KT 1 1/2SM -RA BR BKN007 BKN033 OVC043 14/13 A3008 RMK AO2 P0002 T01440128

10-Day Weather Forecast

Almanac

Astronomy

Feb. 06, 2016 Rise Set
Actual Time
Civil Twilight
Nautical Twilight
Astronomical Twilight
Moon
Length of Visible Light
Length of Day
Tomorrow will be .
, % of the Moon is Illuminated

Today's Extremes

State Highs State Lows

Community

WunderPhotos

Upload Photos

1,891,098 photos uploaded!

WunderBlog® & News

Nearby

Air Quality

  Air Quality AQ Index Pollutant
Not available.

Snow Depth

Station Depth Elevation

Earthquake Activity

City Distance Mag. Time & Date
Minimum magnitude displayed is 2.5.

Coastal Water Temperatures

Place Temperature

Stations

Nearby Weather Stations

Station Location Temp. Windchill Dew Point Humidity Wind Precip. Elev Updated Type
                   

Watches & Warnings

There are currently no watches in effect.